Time;durP1;ratioP1;P1;durP2;ratioP2;P2;SDS_P1;SDS_P2;PMS_P1;PMS_P2;Temp;Humidity;BMP_temperature;BMP_pressure;BME280_temperature;BME280_humidity;BME280_pressure;Samples;Min_cycle;Max_cycle;Signal;HPM_P1;HPM_P2
2022/07/24 00:11:11;;;;;;;9.48;8.00;;;;;;;18.68;66.04;100470.00;30747521;28;97185;-65
2022/07/24 00:26:12;;;;;;;11.80;8.60;;;;;;;17.95;67.75;100471.16;30744757;28;96683;-66
2022/07/24 00:41:13;;;;;;;13.30;9.65;;;;;;;17.77;69.60;100462.69;30742289;28;97472;-66
2022/07/24 00:56:13;;;;;;;12.48;9.80;;;;;;;17.70;70.36;100466.44;30741076;28;96851;-65
2022/07/24 01:11:14;;;;;;;10.82;8.68;;;;;;;17.15;71.35;100467.50;30736263;28;96790;-67
2022/07/24 01:26:15;;;;;;;13.63;10.47;;;;;;;16.99;71.74;100457.16;30736102;28;97357;-65
2022/07/24 01:41:15;;;;;;;13.07;9.90;;;;;;;16.64;72.91;100468.06;30732910;28;97232;-66
2022/07/24 01:56:16;;;;;;;11.57;9.98;;;;;;;16.56;73.38;100464.50;30729665;28;98080;-65
2022/07/24 02:11:18;;;;;;;13.85;10.10;;;;;;;16.87;73.44;100459.63;30730592;28;97088;-64
2022/07/24 02:26:18;;;;;;;14.80;10.20;;;;;;;16.50;73.38;100467.19;30733982;28;96813;-66
2022/07/24 02:41:19;;;;;;;13.00;9.77;;;;;;;16.07;73.30;100460.19;30729290;28;97033;-69
2022/07/24 02:56:19;;;;;;;10.98;8.90;;;;;;;15.78;74.72;100477.38;30731448;28;96733;-66
2022/07/24 03:11:20;;;;;;;10.07;7.75;;;;;;;15.99;75.06;100488.09;30726815;28;97092;-65
2022/07/24 03:26:20;;;;;;;11.23;8.05;;;;;;;16.28;74.49;100493.38;30729730;28;97423;-67
2022/07/24 03:41:20;;;;;;;9.52;7.63;;;;;;;16.33;74.09;100515.94;30726982;28;97244;-67
2022/07/24 03:56:21;;;;;;;11.27;7.78;;;;;;;16.47;73.70;100513.28;30739800;28;97740;-70
2022/07/24 04:11:21;;;;;;;9.73;7.45;;;;;;;16.64;73.27;100530.75;30742974;28;96760;-64
2022/07/24 04:26:22;;;;;;;10.75;7.60;;;;;;;16.98;72.74;100525.50;30746254;28;97578;-65
2022/07/24 04:41:23;;;;;;;9.73;6.93;;;;;;;17.17;72.24;100530.06;30742324;28;96728;-65
2022/07/24 04:56:23;;;;;;;10.50;7.37;;;;;;;17.40;71.86;100555.75;30742691;28;96710;-64
2022/07/24 05:11:24;;;;;;;9.75;6.55;;;;;;;17.82;71.11;100572.53;30738582;28;97642;-64
2022/07/24 05:26:24;;;;;;;9.45;5.72;;;;;;;18.23;69.97;100581.41;30730550;28;97503;-64
2022/07/24 05:41:25;;;;;;;11.15;5.68;;;;;;;18.73;68.51;100594.31;30732652;28;97003;-64
2022/07/24 05:56:25;;;;;;;6.90;5.07;;;;;;;19.20;66.62;100592.22;30736269;28;96927;-64
2022/07/24 06:11:26;;;;;;;7.18;4.10;;;;;;;19.75;65.11;100609.69;30735982;28;97027;-64
2022/07/24 06:26:26;;;;;;;4.82;3.25;;;;;;;20.39;62.82;100620.34;30734278;28;97196;-64
2022/07/24 06:41:26;;;;;;;5.07;2.20;;;;;;;21.11;60.14;100617.81;30733445;28;96737;-64
2022/07/24 06:56:27;;;;;;;5.97;2.50;;;;;;;21.60;57.22;100620.47;30731776;28;96750;-65
2022/07/24 07:11:27;;;;;;;3.73;2.00;;;;;;;22.15;54.56;100613.06;30731219;28;97503;-65
2022/07/24 07:26:28;;;;;;;3.23;1.60;;;;;;;22.86;50.53;100618.38;30734356;28;97474;-65
2022/07/24 07:41:28;;;;;;;3.03;1.70;;;;;;;23.56;47.78;100615.59;30749483;28;96778;-65
2022/07/24 07:56:30;;;;;;;2.47;1.50;;;;;;;23.78;44.00;100623.81;30743272;28;97975;-71
2022/07/24 08:11:30;;;;;;;3.00;1.33;;;;;;;24.27;42.22;100626.75;30745642;28;97581;-64
2022/07/24 08:26:31;;;;;;;1.67;0.95;;;;;;;24.83;39.92;100617.69;30746202;28;96728;-72
2022/07/24 08:41:33;;;;;;;3.17;1.30;;;;;;;25.66;38.21;100617.41;30744166;28;96673;-65
2022/07/24 08:56:36;;;;;;;2.93;1.37;;;;;;;26.02;36.74;100623.16;30742637;28;96723;-65
2022/07/24 09:11:36;;;;;;;5.17;1.40;;;;;;;26.84;35.23;100628.22;30741079;28;97211;-65
2022/07/24 09:27:03;;;;;;;2.22;1.00;;;;;;;27.34;33.34;100628.59;30740104;28;97280;-65
2022/07/24 09:42:06;;;;;;;1.63;0.90;;;;;;;27.33;30.61;100607.81;30717210;28;98449;-65
2022/07/24 09:57:18;;;;;;;2.97;0.83;;;;;;;28.62;28.60;100618.56;30604977;28;97258;-66
2022/07/24 10:12:22;;;;;;;1.53;0.80;;;;;;;29.68;27.65;100625.59;30624306;28;97570;-71
2022/07/24 10:27:24;;;;;;;1.40;0.60;;;;;;;29.53;27.29;100609.28;30730030;28;96695;-75
2022/07/24 10:42:24;;;;;;;1.57;1.30;;;;;;;29.77;25.52;100603.03;30731295;28;97162;-63
2022/07/24 10:58:15;;;;;;;1.77;0.70;;;;;;;29.71;24.64;100605.00;30729362;28;97590;-63
2022/07/24 11:13:31;;;;;;;1.60;0.83;;;;;;;29.46;23.72;100581.38;30750574;28;97028;-63
2022/07/24 11:28:32;;;;;;;0.93;0.67;;;;;;;29.73;23.51;100569.03;30748081;28;96712;-68
2022/07/24 11:43:33;;;;;;;1.25;0.82;;;;;;;30.53;23.54;100562.09;30807070;28;97568;-68
2022/07/24 11:58:38;;;;;;;3.77;2.37;;;;;;;30.50;23.12;100559.94;30797044;28;97287;-66
2022/07/24 12:13:42;;;;;;;3.50;2.67;;;;;;;30.79;22.82;100556.25;30808718;28;96830;-66
2022/07/24 12:28:43;;;;;;;4.40;3.27;;;;;;;30.87;22.69;100539.88;30807193;28;96750;-66
2022/07/24 12:43:50;;;;;;;4.85;2.70;;;;;;;30.43;22.16;100531.97;30806354;28;96789;-66
2022/07/24 12:59:01;;;;;;;3.00;2.47;;;;;;;30.75;22.41;100523.00;30801798;28;97390;-73
2022/07/24 13:14:02;;;;;;;3.53;1.10;;;;;;;30.77;22.34;100517.22;30796045;28;97447;-66
2022/07/24 13:29:03;;;;;;;2.70;1.48;;;;;;;30.51;22.75;100506.59;30795180;28;97186;-65
2022/07/24 13:44:04;;;;;;;3.50;0.70;;;;;;;30.53;22.74;100501.63;30783894;28;96807;-65
2022/07/24 13:59:05;;;;;;;1.17;1.07;;;;;;;30.41;22.36;100484.75;30733361;28;99136;-73
2022/07/24 14:14:06;;;;;;;2.95;1.30;;;;;;;29.81;22.63;100480.53;30733108;28;97514;-70
2022/07/24 14:29:07;;;;;;;1.20;0.67;;;;;;;29.34;23.17;100470.03;30731931;28;98564;-69
2022/07/24 14:44:08;;;;;;;1.52;0.70;;;;;;;28.82;23.52;100455.94;30730777;28;97546;-68
2022/07/24 14:59:08;;;;;;;1.73;0.93;;;;;;;28.20;24.51;100437.16;30730247;28;96856;-69
2022/07/24 15:14:09;;;;;;;2.78;0.73;;;;;;;27.95;24.87;100429.03;30726601;28;97029;-68
2022/07/24 15:29:09;;;;;;;2.42;0.80;;;;;;;27.73;25.40;100423.94;30725836;28;96839;-70
2022/07/24 15:44:10;;;;;;;1.48;1.20;;;;;;;27.59;25.63;100399.09;30727850;28;96821;-67
2022/07/24 15:59:10;;;;;;;1.05;0.77;;;;;;;27.42;25.61;100393.94;30746666;28;96832;-67
2022/07/24 16:14:11;;;;;;;1.30;0.70;;;;;;;27.27;26.25;100389.28;30746148;28;97175;-67
2022/07/24 16:29:11;;;;;;;1.83;0.65;;;;;;;27.08;26.53;100378.94;30742624;28;97066;-66
2022/07/24 16:44:12;;;;;;;2.00;1.40;;;;;;;27.02;26.82;100369.94;30743254;28;108804;-64
2022/07/24 16:59:12;;;;;;;1.60;1.10;;;;;;;26.83;27.01;100368.84;30739350;28;96789;-65
2022/07/24 17:14:13;;;;;;;2.85;0.93;;;;;;;26.55;27.39;100354.63;30738141;28;96805;-68
2022/07/24 17:29:13;;;;;;;1.73;1.10;;;;;;;26.51;27.80;100353.53;30729550;28;96703;-70
2022/07/24 17:44:14;;;;;;;1.10;0.90;;;;;;;26.29;28.51;100356.53;30728929;28;96954;-70
2022/07/24 17:59:15;;;;;;;3.05;1.00;;;;;;;25.72;29.35;100341.91;30725867;28;97034;-71
2022/07/24 18:14:16;;;;;;;2.30;1.02;;;;;;;25.56;30.25;100346.47;30729236;28;98400;-71
2022/07/24 18:29:17;;;;;;;1.52;0.88;;;;;;;25.18;31.04;100354.75;30733412;28;96709;-67
2022/07/24 18:44:18;;;;;;;1.70;0.93;;;;;;;24.43;32.67;100363.69;30731185;28;111603;-67
2022/07/24 18:59:18;;;;;;;2.67;1.00;;;;;;;23.85;33.77;100376.94;30724848;28;98538;-71
2022/07/24 19:14:18;;;;;;;3.30;1.52;;;;;;;23.85;34.61;100376.94;30719916;28;96784;-71
2022/07/24 19:29:19;;;;;;;4.35;2.08;;;;;;;23.73;35.17;100379.78;30733815;28;106016;-70
2022/07/24 19:44:20;;;;;;;6.90;2.03;;;;;;;23.28;36.00;100387.09;30738698;28;97188;-71
2022/07/24 19:59:20;;;;;;;2.37;1.10;;;;;;;22.47;37.57;100390.09;30736688;28;97953;-70
2022/07/24 20:14:21;;;;;;;4.95;2.30;;;;;;;22.07;38.63;100394.50;30737234;28;97350;-67
2022/07/24 20:29:21;;;;;;;3.67;2.27;;;;;;;21.73;39.89;100397.09;30735530;28;97314;-73
2022/07/24 20:44:21;;;;;;;3.33;1.93;;;;;;;21.93;39.78;100407.53;30733038;28;96816;-67
2022/07/24 20:59:22;;;;;;;5.73;2.00;;;;;;;21.73;40.10;100410.63;30733080;28;97134;-72
2022/07/24 21:14:22;;;;;;;7.47;2.00;;;;;;;21.29;41.05;100421.84;30745005;28;96975;-68
2022/07/24 21:29:22;;;;;;;5.93;2.40;;;;;;;20.55;42.62;100427.59;30735509;28;97107;-71
2022/07/24 21:44:23;;;;;;;5.40;2.10;;;;;;;20.05;44.41;100430.56;30732218;28;97203;-68
2022/07/24 21:59:23;;;;;;;4.22;1.92;;;;;;;19.82;45.53;100437.50;30736691;28;96816;-70
2022/07/24 22:14:24;;;;;;;5.82;2.00;;;;;;;19.40;46.77;100429.19;30736608;28;96835;-71
2022/07/24 22:29:24;;;;;;;8.85;2.50;;;;;;;19.13;47.80;100421.31;30735627;28;97375;-72
2022/07/24 22:44:25;;;;;;;6.50;2.85;;;;;;;19.20;48.85;100411.28;30734848;28;96713;-69
2022/07/24 22:59:26;;;;;;;3.77;2.60;;;;;;;18.82;49.08;100417.63;30733009;28;96701;-72
2022/07/24 23:14:26;;;;;;;3.28;2.00;;;;;;;18.18;50.73;100417.59;30732591;28;96940;-71
2022/07/24 23:29:27;;;;;;;5.10;2.20;;;;;;;17.80;51.96;100410.25;30731596;28;96946;-71
2022/07/24 23:44:27;;;;;;;4.82;2.33;;;;;;;17.42;53.16;100409.09;30730198;28;96668;-68
2022/07/24 23:59:28;;;;;;;6.93;2.60;;;;;;;17.18;54.30;100402.50;30728833;28;97145;-70
